sensor_id;sensor_type;location;lat;lon;timestamp;pressure;altitude;pressure_sealevel;temperature;humidity
31357;BME280;60001;48.404;11.738;2023-01-28T00:00:09;96649.69;;;0.13;78.20
31357;BME280;60001;48.404;11.738;2023-01-28T00:01:41;96643.69;;;0.13;78.63
31357;BME280;60001;48.404;11.738;2023-01-28T00:03:13;96641.66;;;0.08;78.19
31357;BME280;60001;48.404;11.738;2023-01-28T00:04:47;96647.16;;;0.05;78.21
31357;BME280;60001;48.404;11.738;2023-01-28T00:06:19;96638.66;;;-0.04;78.00
31357;BME280;60001;48.404;11.738;2023-01-28T00:07:51;96645.94;;;0.01;79.02
31357;BME280;60001;48.404;11.738;2023-01-28T00:09:23;96643.16;;;0.03;77.77
31357;BME280;60001;48.404;11.738;2023-01-28T00:10:57;96651.75;;;0.03;78.22
31357;BME280;60001;48.404;11.738;2023-01-28T00:12:31;96644.31;;;0.00;78.78
31357;BME280;60001;48.404;11.738;2023-01-28T00:14:03;96644.13;;;0.02;77.74
31357;BME280;60001;48.404;11.738;2023-01-28T00:15:35;96645.56;;;0.04;78.37
31357;BME280;60001;48.404;11.738;2023-01-28T00:17:08;96649.94;;;0.04;78.77
31357;BME280;60001;48.404;11.738;2023-01-28T00:18:40;96649.34;;;0.02;77.87
31357;BME280;60001;48.404;11.738;2023-01-28T00:20:13;96649.50;;;0.00;78.20
31357;BME280;60001;48.404;11.738;2023-01-28T00:21:44;96645.47;;;-0.03;78.06
31357;BME280;60001;48.404;11.738;2023-01-28T00:23:16;96646.63;;;-0.05;79.00
31357;BME280;60001;48.404;11.738;2023-01-28T00:24:47;96647.44;;;-0.05;78.82
31357;BME280;60001;48.404;11.738;2023-01-28T00:26:19;96648.84;;;-0.02;78.98
31357;BME280;60001;48.404;11.738;2023-01-28T00:27:51;96648.34;;;0.03;78.99
31357;BME280;60001;48.404;11.738;2023-01-28T00:29:21;96654.63;;;0.08;78.55
31357;BME280;60001;48.404;11.738;2023-01-28T00:30:53;96648.44;;;0.09;79.31
31357;BME280;60001;48.404;11.738;2023-01-28T00:32:25;96652.47;;;0.12;78.70
31357;BME280;60001;48.404;11.738;2023-01-28T00:33:58;96650.06;;;0.10;78.14
31357;BME280;60001;48.404;11.738;2023-01-28T00:35:31;96645.66;;;0.11;78.39
31357;BME280;60001;48.404;11.738;2023-01-28T00:37:02;96643.69;;;0.13;78.82
31357;BME280;60001;48.404;11.738;2023-01-28T00:38:34;96647.88;;;0.14;78.83
31357;BME280;60001;48.404;11.738;2023-01-28T00:40:07;96651.66;;;0.11;78.18
31357;BME280;60001;48.404;11.738;2023-01-28T00:41:40;96640.84;;;0.08;78.76
31357;BME280;60001;48.404;11.738;2023-01-28T00:43:12;96650.06;;;0.10;78.66
31357;BME280;60001;48.404;11.738;2023-01-28T00:44:42;96644.06;;;0.10;78.88
31357;BME280;60001;48.404;11.738;2023-01-28T00:46:15;96625.88;;;-0.05;78.06
31357;BME280;60001;48.404;11.738;2023-01-28T00:47:47;96650.41;;;0.07;78.86
31357;BME280;60001;48.404;11.738;2023-01-28T00:49:19;96650.06;;;0.10;78.95
31357;BME280;60001;48.404;11.738;2023-01-28T00:50:52;96647.63;;;0.09;78.76
31357;BME280;60001;48.404;11.738;2023-01-28T00:52:23;96639.84;;;0.09;78.36
31357;BME280;60001;48.404;11.738;2023-01-28T00:53:55;96648.44;;;0.09;78.12
31357;BME280;60001;48.404;11.738;2023-01-28T00:55:29;96635.25;;;-0.04;78.53
31357;BME280;60001;48.404;11.738;2023-01-28T00:57:01;96640.88;;;-0.01;78.81
31357;BME280;60001;48.404;11.738;2023-01-28T00:58:33;96641.06;;;-0.02;77.93
31357;BME280;60001;48.404;11.738;2023-01-28T01:00:05;96641.53;;;0.02;78.61
31357;BME280;60001;48.404;11.738;2023-01-28T01:01:37;96636.59;;;-0.08;78.15
31357;BME280;60001;48.404;11.738;2023-01-28T01:03:09;96640.16;;;-0.09;78.18
31357;BME280;60001;48.404;11.738;2023-01-28T01:04:41;96637.22;;;-0.06;77.83
31357;BME280;60001;48.404;11.738;2023-01-28T01:06:25;96637.84;;;-0.04;78.59
31357;BME280;60001;48.404;11.738;2023-01-28T01:07:57;96646.91;;;0.00;78.33
31357;BME280;60001;48.404;11.738;2023-01-28T01:09:32;96648.97;;;0.05;77.80
31357;BME280;60001;48.404;11.738;2023-01-28T01:11:05;96652.38;;;0.05;78.43
31357;BME280;60001;48.404;11.738;2023-01-28T01:12:37;96649.16;;;0.03;77.85
31357;BME280;60001;48.404;11.738;2023-01-28T01:14:09;96656.75;;;0.05;78.43
31357;BME280;60001;48.404;11.738;2023-01-28T01:15:41;96649.16;;;0.03;77.41
31357;BME280;60001;48.404;11.738;2023-01-28T01:17:13;96649.50;;;0.00;77.87
31357;BME280;60001;48.404;11.738;2023-01-28T01:18:45;96652.72;;;0.02;77.73
31357;BME280;60001;48.404;11.738;2023-01-28T01:20:19;96649.16;;;0.03;78.29
31357;BME280;60001;48.404;11.738;2023-01-28T01:21:52;96656.31;;;0.01;78.10
31357;BME280;60001;48.404;11.738;2023-01-28T01:23:25;96652.09;;;0.00;77.88
31357;BME280;60001;48.404;11.738;2023-01-28T01:24:56;96659.91;;;0.00;78.16
31357;BME280;60001;48.404;11.738;2023-01-28T01:26:28;96647.63;;;-0.06;78.08
31357;BME280;60001;48.404;11.738;2023-01-28T01:28:00;96652.25;;;-0.02;77.99
31357;BME280;60001;48.404;11.738;2023-01-28T01:29:32;96651.47;;;-0.02;77.46
31357;BME280;60001;48.404;11.738;2023-01-28T01:31:05;96654.22;;;-0.04;78.28
31357;BME280;60001;48.404;11.738;2023-01-28T01:32:37;96661.22;;;-0.04;78.31
31357;BME280;60001;48.404;11.738;2023-01-28T01:34:09;96655.56;;;-0.08;78.38
31357;BME280;60001;48.404;11.738;2023-01-28T01:35:41;96653.50;;;-0.12;78.42
31357;BME280;60001;48.404;11.738;2023-01-28T01:37:13;96672.91;;;-0.08;77.82
31357;BME280;60001;48.404;11.738;2023-01-28T01:38:45;96665.31;;;-0.10;78.47
31357;BME280;60001;48.404;11.738;2023-01-28T01:40:17;96671.50;;;-0.11;78.19
31357;BME280;60001;48.404;11.738;2023-01-28T01:41:49;96647.75;;;-0.22;78.08
31357;BME280;60001;48.404;11.738;2023-01-28T01:43:21;96672.31;;;-0.10;78.11
31357;BME280;60001;48.404;11.738;2023-01-28T01:44:59;96667.09;;;-0.10;78.62
31357;BME280;60001;48.404;11.738;2023-01-28T01:46:36;96656.63;;;-0.17;78.12
31357;BME280;60001;48.404;11.738;2023-01-28T01:48:15;96664.69;;;-0.12;78.06
31357;BME280;60001;48.404;11.738;2023-01-28T01:49:49;96655.00;;;-0.18;78.39
31357;BME280;60001;48.404;11.738;2023-01-28T01:51:23;96670.06;;;-0.13;77.93
31357;BME280;60001;48.404;11.738;2023-01-28T01:53:03;96666.81;;;-0.15;78.44
31357;BME280;60001;48.404;11.738;2023-01-28T01:54:42;96668.44;;;-0.14;78.44
31357;BME280;60001;48.404;11.738;2023-01-28T01:56:19;96671.56;;;-0.19;77.69
31357;BME280;60001;48.404;11.738;2023-01-28T01:57:55;96672.69;;;-0.21;78.22
31357;BME280;60001;48.404;11.738;2023-01-28T01:59:32;96674.06;;;-0.25;79.17
31357;BME280;60001;48.404;11.738;2023-01-28T02:01:05;96670.66;;;-0.26;78.77
31357;BME280;60001;48.404;11.738;2023-01-28T02:02:40;96675.84;;;-0.26;78.45
31357;BME280;60001;48.404;11.738;2023-01-28T02:04:19;96681.03;;;-0.26;78.96
31357;BME280;60001;48.404;11.738;2023-01-28T02:05:53;96676.81;;;-0.27;78.93
31357;BME280;60001;48.404;11.738;2023-01-28T02:07:26;96676.66;;;-0.25;78.58
31357;BME280;60001;48.404;11.738;2023-01-28T02:09:00;96682.81;;;-0.26;78.99
31357;BME280;60001;48.404;11.738;2023-01-28T02:10:31;96682.16;;;-0.29;78.65
31357;BME280;60001;48.404;11.738;2023-01-28T02:12:07;96684.44;;;-0.25;78.82
31357;BME280;60001;48.404;11.738;2023-01-28T02:13:41;96681.66;;;-0.24;79.20
31357;BME280;60001;48.404;11.738;2023-01-28T02:15:16;96685.41;;;-0.26;78.74
31357;BME280;60001;48.404;11.738;2023-01-28T02:16:49;96674.84;;;-0.25;78.95
31357;BME280;60001;48.404;11.738;2023-01-28T02:18:21;96683.44;;;-0.24;79.38
31357;BME280;60001;48.404;11.738;2023-01-28T02:19:56;96681.47;;;-0.22;79.70
31357;BME280;60001;48.404;11.738;2023-01-28T02:22:02;96685.25;;;-0.25;79.34
31357;BME280;60001;48.404;11.738;2023-01-28T02:23:54;96685.06;;;-0.23;79.34
31357;BME280;60001;48.404;11.738;2023-01-28T02:25:53;96678.88;;;-0.22;78.98
31357;BME280;60001;48.404;11.738;2023-01-28T02:27:36;96692.50;;;-0.20;79.24
31357;BME280;60001;48.404;11.738;2023-01-28T02:29:16;96684.38;;;-0.17;78.90
31357;BME280;60001;48.404;11.738;2023-01-28T02:30:57;96690.47;;;-0.10;79.42
31357;BME280;60001;48.404;11.738;2023-01-28T02:32:38;96687.88;;;-0.10;78.76
31357;BME280;60001;48.404;11.738;2023-01-28T02:34:17;96689.03;;;-0.13;79.56
31357;BME280;60001;48.404;11.738;2023-01-28T02:35:53;96689.19;;;-0.14;78.37
31357;BME280;60001;48.404;11.738;2023-01-28T02:37:33;96691.78;;;-0.14;79.31
31357;BME280;60001;48.404;11.738;2023-01-28T02:39:10;96695.38;;;-0.15;78.51
31357;BME280;60001;48.404;11.738;2023-01-28T02:40:49;96694.75;;;-0.17;78.73
31357;BME280;60001;48.404;11.738;2023-01-28T02:42:38;96699.75;;;-0.16;79.02
31357;BME280;60001;48.404;11.738;2023-01-28T02:44:12;96692.78;;;-0.15;79.11
31357;BME280;60001;48.404;11.738;2023-01-28T02:45:43;96703.16;;;-0.15;78.61
31357;BME280;60001;48.404;11.738;2023-01-28T02:47:33;96701.53;;;-0.16;79.76
31357;BME280;60001;48.404;11.738;2023-01-28T02:49:26;96699.75;;;-0.16;78.73
31357;BME280;60001;48.404;11.738;2023-01-28T02:51:09;96701.22;;;-0.13;79.17
31357;BME280;60001;48.404;11.738;2023-01-28T02:53:01;96704.25;;;-0.10;78.94
31357;BME280;60001;48.404;11.738;2023-01-28T02:55:00;96701.31;;;-0.07;78.99
31357;BME280;60001;48.404;11.738;2023-01-28T02:56:46;96706.16;;;-0.04;79.74
31357;BME280;60001;48.404;11.738;2023-01-28T02:58:28;96707.94;;;-0.04;78.99
31357;BME280;60001;48.404;11.738;2023-01-28T03:00:11;96699.06;;;-0.10;78.82
31357;BME280;60001;48.404;11.738;2023-01-28T03:01:53;96702.47;;;-0.09;78.96
31357;BME280;60001;48.404;11.738;2023-01-28T03:03:34;96698.03;;;-0.23;79.31
31357;BME280;60001;48.404;11.738;2023-01-28T03:05:16;96696.34;;;-0.16;79.05
31357;BME280;60001;48.404;11.738;2023-01-28T03:06:56;96697.34;;;-0.17;79.71
31357;BME280;60001;48.404;11.738;2023-01-28T03:08:34;96697.34;;;-0.17;79.38
31357;BME280;60001;48.404;11.738;2023-01-28T03:10:27;96705.31;;;-0.19;79.40
31357;BME280;60001;48.404;11.738;2023-01-28T03:12:03;96710.31;;;-0.17;79.73
31357;BME280;60001;48.404;11.738;2023-01-28T03:13:54;96699.75;;;-0.16;79.76
31357;BME280;60001;48.404;11.738;2023-01-28T03:15:47;96705.50;;;-0.20;79.55
31357;BME280;60001;48.404;11.738;2023-01-28T03:17:43;96704.03;;;-0.23;79.20
31357;BME280;60001;48.404;11.738;2023-01-28T03:19:34;96707.44;;;-0.22;78.81
31357;BME280;60001;48.404;11.738;2023-01-28T03:21:29;96699.38;;;-0.28;79.18
31357;BME280;60001;48.404;11.738;2023-01-28T03:23:26;96707.25;;;-0.21;79.26
31357;BME280;60001;48.404;11.738;2023-01-28T03:25:20;96716.50;;;-0.18;79.71
31357;BME280;60001;48.404;11.738;2023-01-28T03:27:17;96711.00;;;-0.23;79.06
31357;BME280;60001;48.404;11.738;2023-01-28T03:29:12;96709.75;;;-0.28;79.10
31357;BME280;60001;48.404;11.738;2023-01-28T03:31:07;96700.50;;;-0.30;79.29
31357;BME280;60001;48.404;11.738;2023-01-28T03:32:58;96706.81;;;-0.24;79.04
31357;BME280;60001;48.404;11.738;2023-01-28T03:34:48;96700.00;;;-0.25;79.25
31357;BME280;60001;48.404;11.738;2023-01-28T03:36:38;96709.22;;;-0.23;79.39
31357;BME280;60001;48.404;11.738;2023-01-28T03:38:20;96711.81;;;-0.23;79.26
31357;BME280;60001;48.404;11.738;2023-01-28T03:39:53;96706.44;;;-0.21;79.21
31357;BME280;60001;48.404;11.738;2023-01-28T03:41:27;96709.22;;;-0.23;79.29
31357;BME280;60001;48.404;11.738;2023-01-28T03:42:58;96712.97;;;-0.25;79.81
31357;BME280;60001;48.404;11.738;2023-01-28T03:44:30;96711.50;;;-0.28;79.00
31357;BME280;60001;48.404;11.738;2023-01-28T03:46:24;96713.16;;;-0.27;80.07
31357;BME280;60001;48.404;11.738;2023-01-28T03:47:56;96716.19;;;-0.23;79.86
31357;BME280;60001;48.404;11.738;2023-01-28T03:49:28;96712.63;;;-0.22;80.31
31357;BME280;60001;48.404;11.738;2023-01-28T03:50:59;96712.44;;;-0.21;80.59
31357;BME280;60001;48.404;11.738;2023-01-28T03:52:32;96712.56;;;-0.14;80.21
31357;BME280;60001;48.404;11.738;2023-01-28T03:54:04;96724.41;;;-0.12;79.44
31357;BME280;60001;48.404;11.738;2023-01-28T03:55:35;96713.66;;;-0.09;79.41
31357;BME280;60001;48.404;11.738;2023-01-28T03:57:07;96717.03;;;-0.08;79.21
31357;BME280;60001;48.404;11.738;2023-01-28T03:58:37;96717.03;;;-0.08;79.74
31357;BME280;60001;48.404;11.738;2023-01-28T04:00:22;96723.03;;;-0.08;79.23
31357;BME280;60001;48.404;11.738;2023-01-28T04:01:55;96720.63;;;-0.09;79.81
31357;BME280;60001;48.404;11.738;2023-01-28T04:03:26;96722.59;;;-0.11;79.74
31357;BME280;60001;48.404;11.738;2023-01-28T04:04:58;96721.16;;;-0.14;79.47
31357;BME280;60001;48.404;11.738;2023-01-28T04:06:30;96724.91;;;-0.16;79.20
31357;BME280;60001;48.404;11.738;2023-01-28T04:08:02;96718.91;;;-0.17;79.85
31357;BME280;60001;48.404;11.738;2023-01-28T04:09:34;96721.50;;;-0.17;80.00
31357;BME280;60001;48.404;11.738;2023-01-28T04:11:08;96723.28;;;-0.17;79.45
31357;BME280;60001;48.404;11.738;2023-01-28T04:12:45;96726.50;;;-0.15;79.86
31357;BME280;60001;48.404;11.738;2023-01-28T04:14:19;96717.13;;;-0.16;79.56
31357;BME280;60001;48.404;11.738;2023-01-28T04:15:50;96719.81;;;-0.10;80.01
31357;BME280;60001;48.404;11.738;2023-01-28T04:17:23;96719.53;;;-0.15;79.72
31357;BME280;60001;48.404;11.738;2023-01-28T04:18:54;96729.91;;;-0.15;79.58
31357;BME280;60001;48.404;11.738;2023-01-28T04:20:27;96742.25;;;-0.17;79.44
31357;BME280;60001;48.404;11.738;2023-01-28T04:21:59;96724.97;;;-0.24;79.03
31357;BME280;60001;48.404;11.738;2023-01-28T04:23:31;96726.88;;;-0.18;80.07
31357;BME280;60001;48.404;11.738;2023-01-28T04:25:01;96731.88;;;-0.17;79.94
31357;BME280;60001;48.404;11.738;2023-01-28T04:26:33;96734.16;;;-0.14;80.02
31357;BME280;60001;48.404;11.738;2023-01-28T04:28:05;96735.75;;;-0.13;80.23
31357;BME280;60001;48.404;11.738;2023-01-28T04:29:37;96725.53;;;-0.14;80.00
31357;BME280;60001;48.404;11.738;2023-01-28T04:31:09;96730.22;;;-0.10;79.57
31357;BME280;60001;48.404;11.738;2023-01-28T04:32:41;96730.38;;;-0.11;79.98
31357;BME280;60001;48.404;11.738;2023-01-28T04:34:12;96737.00;;;-0.09;79.38
31357;BME280;60001;48.404;11.738;2023-01-28T04:35:44;96736.03;;;-0.08;79.78
31357;BME280;60001;48.404;11.738;2023-01-28T04:37:15;96736.50;;;-0.04;80.50
31357;BME280;60001;48.404;11.738;2023-01-28T04:38:47;96734.53;;;-0.02;80.17
31357;BME280;60001;48.404;11.738;2023-01-28T04:40:18;96724.22;;;-0.10;79.99
31357;BME280;60001;48.404;11.738;2023-01-28T04:41:50;96745.56;;;0.00;79.60
31357;BME280;60001;48.404;11.738;2023-01-28T04:43:22;96744.72;;;-0.01;80.03
31357;BME280;60001;48.404;11.738;2023-01-28T04:44:52;96741.69;;;-0.04;80.17
31357;BME280;60001;48.404;11.738;2023-01-28T04:46:24;96743.78;;;0.01;79.46
31357;BME280;60001;48.404;11.738;2023-01-28T04:47:56;96748.97;;;0.01;79.94
31357;BME280;60001;48.404;11.738;2023-01-28T04:49:28;96745.38;;;0.02;79.68
31357;BME280;60001;48.404;11.738;2023-01-28T04:51:00;96743.13;;;-0.02;79.61
31357;BME280;60001;48.404;11.738;2023-01-28T04:52:32;96747.63;;;0.05;80.02
31357;BME280;60001;48.404;11.738;2023-01-28T04:54:03;96746.19;;;0.02;79.76
31357;BME280;60001;48.404;11.738;2023-01-28T04:55:34;96747.19;;;0.01;80.03
31357;BME280;60001;48.404;11.738;2023-01-28T04:57:06;96758.81;;;0.05;80.05
31357;BME280;60001;48.404;11.738;2023-01-28T04:58:38;96760.41;;;0.06;79.51
31357;BME280;60001;48.404;11.738;2023-01-28T05:00:10;96755.06;;;0.08;79.93
31357;BME280;60001;48.404;11.738;2023-01-28T05:01:41;96757.50;;;0.09;80.06
31357;BME280;60001;48.404;11.738;2023-01-28T05:03:14;96761.06;;;0.08;79.28
31357;BME280;60001;48.404;11.738;2023-01-28T05:04:45;96757.50;;;0.09;79.62
31357;BME280;60001;48.404;11.738;2023-01-28T05:06:17;96756.50;;;0.10;79.38
31357;BME280;60001;48.404;11.738;2023-01-28T05:07:50;96752.31;;;0.09;80.13
31357;BME280;60001;48.404;11.738;2023-01-28T05:09:21;96758.47;;;0.08;80.02
31357;BME280;60001;48.404;11.738;2023-01-28T05:10:53;96759.47;;;0.07;80.03
31357;BME280;60001;48.404;11.738;2023-01-28T05:12:24;96758.28;;;0.10;79.82
31357;BME280;60001;48.404;11.738;2023-01-28T05:13:55;96759.09;;;0.10;79.63
31357;BME280;60001;48.404;11.738;2023-01-28T05:15:27;96764.28;;;0.10;79.87
31357;BME280;60001;48.404;11.738;2023-01-28T05:16:58;96764.91;;;0.12;79.85
31357;BME280;60001;48.404;11.738;2023-01-28T05:18:31;96773.50;;;0.13;79.93
31357;BME280;60001;48.404;11.738;2023-01-28T05:20:04;96769.13;;;0.13;79.92
31357;BME280;60001;48.404;11.738;2023-01-28T05:21:35;96767.34;;;0.14;79.47
31357;BME280;60001;48.404;11.738;2023-01-28T05:23:06;96771.91;;;0.12;78.81
31357;BME280;60001;48.404;11.738;2023-01-28T05:24:38;96772.72;;;0.12;79.49
31357;BME280;60001;48.404;11.738;2023-01-28T05:26:11;96771.09;;;0.11;79.23
31357;BME280;60001;48.404;11.738;2023-01-28T05:27:43;96764.91;;;0.12;79.96
31357;BME280;60001;48.404;11.738;2023-01-28T05:29:14;96770.78;;;0.14;79.10
31357;BME280;60001;48.404;11.738;2023-01-28T05:30:45;96770.78;;;0.14;79.56
31357;BME280;60001;48.404;11.738;2023-01-28T05:32:17;96775.97;;;0.14;80.20
31357;BME280;60001;48.404;11.738;2023-01-28T05:33:50;96775.31;;;0.12;79.72
31357;BME280;60001;48.404;11.738;2023-01-28T05:35:22;96778.56;;;0.14;79.65
31357;BME280;60001;48.404;11.738;2023-01-28T05:36:54;96781.97;;;0.15;80.08
31357;BME280;60001;48.404;11.738;2023-01-28T05:38:25;96776.91;;;0.13;79.92
31357;BME280;60001;48.404;11.738;2023-01-28T05:39:57;96781.59;;;0.18;80.02
31357;BME280;60001;48.404;11.738;2023-01-28T05:41:28;96785.81;;;0.19;79.77
31357;BME280;60001;48.404;11.738;2023-01-28T05:43:00;96783.03;;;0.20;80.00
31357;BME280;60001;48.404;11.738;2023-01-28T05:44:32;96780.59;;;0.19;79.64
31357;BME280;60001;48.404;11.738;2023-01-28T05:46:03;96791.47;;;0.22;79.63
31357;BME280;60001;48.404;11.738;2023-01-28T05:47:35;96788.06;;;0.22;79.18
31357;BME280;60001;48.404;11.738;2023-01-28T05:49:08;96785.63;;;0.20;80.08
31357;BME280;60001;48.404;11.738;2023-01-28T05:50:41;96784.81;;;0.20;79.38
31357;BME280;60001;48.404;11.738;2023-01-28T05:52:13;96788.41;;;0.19;79.50
31357;BME280;60001;48.404;11.738;2023-01-28T05:53:45;96794.41;;;0.19;79.86
31357;BME280;60001;48.404;11.738;2023-01-28T05:55:17;96779.19;;;0.16;79.20
31357;BME280;60001;48.404;11.738;2023-01-28T05:56:49;96779.97;;;0.17;79.85
31357;BME280;60001;48.404;11.738;2023-01-28T05:58:20;96783.56;;;0.16;79.83
31357;BME280;60001;48.404;11.738;2023-01-28T05:59:52;96789.91;;;0.13;79.45
31357;BME280;60001;48.404;11.738;2023-01-28T06:01:23;96780.69;;;0.11;79.98
31357;BME280;60001;48.404;11.738;2023-01-28T06:02:54;96785.34;;;0.15;80.17
31357;BME280;60001;48.404;11.738;2023-01-28T06:04:28;96786.97;;;0.16;80.25
31357;BME280;60001;48.404;11.738;2023-01-28T06:05:58;96781.78;;;0.16;79.50
31357;BME280;60001;48.404;11.738;2023-01-28T06:07:30;96786.97;;;0.16;80.30
31357;BME280;60001;48.404;11.738;2023-01-28T06:09:02;96782.75;;;0.15;79.42
31357;BME280;60001;48.404;11.738;2023-01-28T06:10:34;96786.50;;;0.13;79.96
31357;BME280;60001;48.404;11.738;2023-01-28T06:12:06;96786.69;;;0.11;79.86
31357;BME280;60001;48.404;11.738;2023-01-28T06:13:38;96782.28;;;0.12;79.49
31357;BME280;60001;48.404;11.738;2023-01-28T06:15:11;96786.34;;;0.14;80.52
31357;BME280;60001;48.404;11.738;2023-01-28T06:16:42;96784.56;;;0.15;79.97
31357;BME280;60001;48.404;11.738;2023-01-28T06:18:13;96794.28;;;0.13;80.24
31357;BME280;60001;48.404;11.738;2023-01-28T06:19:46;96791.88;;;0.11;80.38
31357;BME280;60001;48.404;11.738;2023-01-28T06:21:18;96802.06;;;0.13;80.23
31357;BME280;60001;48.404;11.738;2023-01-28T06:22:50;96794.47;;;0.11;80.73
31357;BME280;60001;48.404;11.738;2023-01-28T06:24:22;96797.53;;;0.15;80.20
31357;BME280;60001;48.404;11.738;2023-01-28T06:25:54;96800.56;;;0.18;80.13
31357;BME280;60001;48.404;11.738;2023-01-28T06:27:26;96801.84;;;0.22;80.49
31357;BME280;60001;48.404;11.738;2023-01-28T06:28:58;96798.09;;;0.25;80.11
31357;BME280;60001;48.404;11.738;2023-01-28T06:30:29;96800.06;;;0.23;80.45
31357;BME280;60001;48.404;11.738;2023-01-28T06:32:00;96809.91;;;0.27;79.87
31357;BME280;60001;48.404;11.738;2023-01-28T06:33:32;96812.50;;;0.27;79.25
31357;BME280;60001;48.404;11.738;2023-01-28T06:35:06;96813.69;;;0.25;79.86
31357;BME280;60001;48.404;11.738;2023-01-28T06:36:38;96812.56;;;0.19;79.24
31357;BME280;60001;48.404;11.738;2023-01-28T06:38:10;96818.75;;;0.18;79.88
31357;BME280;60001;48.404;11.738;2023-01-28T06:39:42;96822.34;;;0.17;80.08
31357;BME280;60001;48.404;11.738;2023-01-28T06:41:13;96820.56;;;0.18;79.65
31357;BME280;60001;48.404;11.738;2023-01-28T06:42:45;96825.91;;;0.16;80.36
31357;BME280;60001;48.404;11.738;2023-01-28T06:44:17;96826.91;;;0.15;80.03
31357;BME280;60001;48.404;11.738;2023-01-28T06:45:49;96830.44;;;0.22;79.89
31357;BME280;60001;48.404;11.738;2023-01-28T06:47:21;96828.47;;;0.24;79.96
31357;BME280;60001;48.404;11.738;2023-01-28T06:48:53;96832.66;;;0.25;80.40
31357;BME280;60001;48.404;11.738;2023-01-28T06:50:27;96834.94;;;0.29;79.94
31357;BME280;60001;48.404;11.738;2023-01-28T06:51:58;96836.53;;;0.30;80.47
31357;BME280;60001;48.404;11.738;2023-01-28T06:53:30;96839.75;;;0.32;80.09
31357;BME280;60001;48.404;11.738;2023-01-28T06:55:02;96836.19;;;0.33;79.75
31357;BME280;60001;48.404;11.738;2023-01-28T06:56:34;96842.53;;;0.30;79.76
31357;BME280;60001;48.404;11.738;2023-01-28T06:58:05;96840.75;;;0.31;79.35
31357;BME280;60001;48.404;11.738;2023-01-28T06:59:37;96825.06;;;0.24;79.30
31357;BME280;60001;48.404;11.738;2023-01-28T07:01:09;96840.13;;;0.29;79.80
31357;BME280;60001;48.404;11.738;2023-01-28T07:02:41;96837.84;;;0.25;79.79
31357;BME280;60001;48.404;11.738;2023-01-28T07:04:13;96834.94;;;0.29;79.51
31357;BME280;60001;48.404;11.738;2023-01-28T07:05:46;96847.13;;;0.28;79.94
31357;BME280;60001;48.404;11.738;2023-01-28T07:07:17;96849.72;;;0.28;80.09
31357;BME280;60001;48.404;11.738;2023-01-28T07:08:48;96840.47;;;0.25;79.92
31357;BME280;60001;48.404;11.738;2023-01-28T07:10:20;96847.38;;;0.33;79.51
31357;BME280;60001;48.404;11.738;2023-01-28T07:11:52;96852.41;;;0.35;79.97
31357;BME280;60001;48.404;11.738;2023-01-28T07:13:24;96852.06;;;0.38;79.73
31357;BME280;60001;48.404;11.738;2023-01-28T07:14:56;96850.09;;;0.40;80.26
31357;BME280;60001;48.404;11.738;2023-01-28T07:16:27;96851.44;;;0.36;79.58
31357;BME280;60001;48.404;11.738;2023-01-28T07:17:59;96848.84;;;0.36;79.43
31357;BME280;60001;48.404;11.738;2023-01-28T07:19:31;96856.28;;;0.39;79.88
31357;BME280;60001;48.404;11.738;2023-01-28T07:21:03;96859.69;;;0.39;79.69
31357;BME280;60001;48.404;11.738;2023-01-28T07:22:36;96858.88;;;0.39;79.60
31357;BME280;60001;48.404;11.738;2023-01-28T07:24:09;96869.88;;;0.41;79.98
31357;BME280;60001;48.404;11.738;2023-01-28T07:25:40;96867.28;;;0.41;79.90
31357;BME280;60001;48.404;11.738;2023-01-28T07:27:12;96862.44;;;0.38;79.34
31357;BME280;60001;48.404;11.738;2023-01-28T07:28:44;96869.63;;;0.36;79.20
31357;BME280;60001;48.404;11.738;2023-01-28T07:30:17;96866.03;;;0.37;79.75
31357;BME280;60001;48.404;11.738;2023-01-28T07:31:49;96870.25;;;0.38;79.65
31357;BME280;60001;48.404;11.738;2023-01-28T07:33:21;96875.25;;;0.39;79.72
31357;BME280;60001;48.404;11.738;2023-01-28T07:34:53;96868.28;;;0.40;79.33
31357;BME280;60001;48.404;11.738;2023-01-28T07:36:26;96866.84;;;0.37;79.88
31357;BME280;60001;48.404;11.738;2023-01-28T07:37:59;96862.63;;;0.36;79.24
31357;BME280;60001;48.404;11.738;2023-01-28T07:39:31;96878.50;;;0.41;79.52
31357;BME280;60001;48.404;11.738;2023-01-28T07:41:04;96875.88;;;0.41;79.95
31357;BME280;60001;48.404;11.738;2023-01-28T07:42:35;96872.66;;;0.39;79.84
31357;BME280;60001;48.404;11.738;2023-01-28T07:44:07;96879.47;;;0.40;79.78
31357;BME280;60001;48.404;11.738;2023-01-28T07:45:39;96876.44;;;0.37;79.85
31357;BME280;60001;48.404;11.738;2023-01-28T07:47:11;96874.16;;;0.34;80.44
31357;BME280;60001;48.404;11.738;2023-01-28T07:48:42;96878.66;;;0.40;79.96
31357;BME280;60001;48.404;11.738;2023-01-28T07:50:15;96880.13;;;0.42;80.11
31357;BME280;60001;48.404;11.738;2023-01-28T07:51:48;96881.38;;;0.46;79.83
31357;BME280;60001;48.404;11.738;2023-01-28T07:53:20;96889.00;;;0.48;80.61
31357;BME280;60001;48.404;11.738;2023-01-28T07:54:52;96887.91;;;0.42;80.33
31357;BME280;60001;48.404;11.738;2023-01-28T07:56:23;96884.53;;;0.42;79.59
31357;BME280;60001;48.404;11.738;2023-01-28T07:57:59;96886.75;;;0.45;80.27
31357;BME280;60001;48.404;11.738;2023-01-28T07:59:31;96886.94;;;0.43;79.68
31357;BME280;60001;48.404;11.738;2023-01-28T08:01:03;96887.75;;;0.44;79.83
31357;BME280;60001;48.404;11.738;2023-01-28T08:02:35;96886.75;;;0.45;79.98
31357;BME280;60001;48.404;11.738;2023-01-28T08:04:05;96892.41;;;0.48;80.17
31357;BME280;60001;48.404;11.738;2023-01-28T08:05:39;96893.06;;;0.50;80.21
31357;BME280;60001;48.404;11.738;2023-01-28T08:07:14;96892.41;;;0.48;79.91
31357;BME280;60001;48.404;11.738;2023-01-28T08:08:46;96893.94;;;0.43;79.86
31357;BME280;60001;48.404;11.738;2023-01-28T08:10:19;96897.31;;;0.43;79.68
31357;BME280;60001;48.404;11.738;2023-01-28T08:11:50;96896.84;;;0.40;80.01
31357;BME280;60001;48.404;11.738;2023-01-28T08:13:22;96901.72;;;0.43;79.81
31357;BME280;60001;48.404;11.738;2023-01-28T08:14:54;96904.13;;;0.44;80.09
31357;BME280;60001;48.404;11.738;2023-01-28T08:16:26;96905.56;;;0.47;80.07